sensor_id;sensor_type;location;lat;lon;timestamp;temperature;humidity
64869;DHT22;51349;52.424;10.840;2023-09-07T00:04:33;15.30;99.90
64869;DHT22;51349;52.424;10.840;2023-09-07T00:09:34;15.20;99.90
64869;DHT22;51349;52.424;10.840;2023-09-07T00:14:35;15.10;99.90
64869;DHT22;51349;52.424;10.840;2023-09-07T00:19:35;15.00;99.90
64869;DHT22;51349;52.424;10.840;2023-09-07T00:24:37;14.90;99.90
64869;DHT22;51349;52.424;10.840;2023-09-07T00:29:38;14.90;99.90
64869;DHT22;51349;52.424;10.840;2023-09-07T00:34:39;14.90;99.90
64869;DHT22;51349;52.424;10.840;2023-09-07T00:39:39;14.80;99.90
64869;DHT22;51349;52.424;10.840;2023-09-07T00:44:40;14.80;99.90
64869;DHT22;51349;52.424;10.840;2023-09-07T00:49:41;14.70;99.90
64869;DHT22;51349;52.424;10.840;2023-09-07T00:54:42;14.60;99.90
64869;DHT22;51349;52.424;10.840;2023-09-07T00:59:42;14.70;99.90
64869;DHT22;51349;52.424;10.840;2023-09-07T01:04:43;14.70;99.90
64869;DHT22;51349;52.424;10.840;2023-09-07T01:09:47;14.60;99.90
64869;DHT22;51349;52.424;10.840;2023-09-07T01:14:49;14.50;99.90
64869;DHT22;51349;52.424;10.840;2023-09-07T01:19:50;14.40;99.90
64869;DHT22;51349;52.424;10.840;2023-09-07T01:24:52;14.40;99.90
64869;DHT22;51349;52.424;10.840;2023-09-07T01:29:53;14.30;99.90
64869;DHT22;51349;52.424;10.840;2023-09-07T01:34:58;14.20;99.90
64869;DHT22;51349;52.424;10.840;2023-09-07T01:39:58;14.10;99.90
64869;DHT22;51349;52.424;10.840;2023-09-07T01:45:01;14.10;99.90
64869;DHT22;51349;52.424;10.840;2023-09-07T01:50:01;14.10;99.90
64869;DHT22;51349;52.424;10.840;2023-09-07T01:55:03;14.00;99.90
64869;DHT22;51349;52.424;10.840;2023-09-07T02:00:04;14.00;99.90
64869;DHT22;51349;52.424;10.840;2023-09-07T02:05:06;13.90;99.90
64869;DHT22;51349;52.424;10.840;2023-09-07T02:10:08;13.90;99.90
64869;DHT22;51349;52.424;10.840;2023-09-07T02:15:09;13.90;99.90
64869;DHT22;51349;52.424;10.840;2023-09-07T02:20:14;13.80;99.90
64869;DHT22;51349;52.424;10.840;2023-09-07T02:25:14;13.80;99.90
64869;DHT22;51349;52.424;10.840;2023-09-07T02:30:15;13.70;99.90
64869;DHT22;51349;52.424;10.840;2023-09-07T02:35:16;13.80;99.90
64869;DHT22;51349;52.424;10.840;2023-09-07T02:40:17;13.60;99.90
64869;DHT22;51349;52.424;10.840;2023-09-07T02:45:17;13.70;99.90
64869;DHT22;51349;52.424;10.840;2023-09-07T02:50:18;13.60;99.90
64869;DHT22;51349;52.424;10.840;2023-09-07T02:55:18;13.60;99.90
64869;DHT22;51349;52.424;10.840;2023-09-07T03:00:19;13.60;99.90
64869;DHT22;51349;52.424;10.840;2023-09-07T03:05:20;13.60;99.90
64869;DHT22;51349;52.424;10.840;2023-09-07T03:10:20;13.60;99.90
64869;DHT22;51349;52.424;10.840;2023-09-07T03:15:21;13.50;99.90
64869;DHT22;51349;52.424;10.840;2023-09-07T03:20:22;13.40;99.90
64869;DHT22;51349;52.424;10.840;2023-09-07T03:25:23;13.40;99.90
64869;DHT22;51349;52.424;10.840;2023-09-07T03:30:24;13.40;99.90
64869;DHT22;51349;52.424;10.840;2023-09-07T03:35:25;13.30;99.90
64869;DHT22;51349;52.424;10.840;2023-09-07T03:40:26;13.20;99.90
64869;DHT22;51349;52.424;10.840;2023-09-07T03:45:27;13.30;99.90
64869;DHT22;51349;52.424;10.840;2023-09-07T03:50:28;13.20;99.90
64869;DHT22;51349;52.424;10.840;2023-09-07T03:55:28;13.10;99.90
64869;DHT22;51349;52.424;10.840;2023-09-07T04:00:29;13.10;99.90
64869;DHT22;51349;52.424;10.840;2023-09-07T04:05:31;13.10;99.90
64869;DHT22;51349;52.424;10.840;2023-09-07T04:10:31;13.10;99.90
64869;DHT22;51349;52.424;10.840;2023-09-07T04:15:45;13.10;99.90
64869;DHT22;51349;52.424;10.840;2023-09-07T04:20:45;13.00;99.90
64869;DHT22;51349;52.424;10.840;2023-09-07T04:25:46;13.00;99.90
64869;DHT22;51349;52.424;10.840;2023-09-07T04:30:47;12.90;99.90
64869;DHT22;51349;52.424;10.840;2023-09-07T04:35:47;12.90;99.90
64869;DHT22;51349;52.424;10.840;2023-09-07T04:40:48;12.90;99.90
64869;DHT22;51349;52.424;10.840;2023-09-07T04:45:49;12.80;99.90
64869;DHT22;51349;52.424;10.840;2023-09-07T04:50:57;12.80;99.90
64869;DHT22;51349;52.424;10.840;2023-09-07T04:55:58;12.80;99.90
64869;DHT22;51349;52.424;10.840;2023-09-07T05:01:07;12.80;99.90
64869;DHT22;51349;52.424;10.840;2023-09-07T05:06:09;12.70;99.90
64869;DHT22;51349;52.424;10.840;2023-09-07T05:11:09;12.80;99.90
64869;DHT22;51349;52.424;10.840;2023-09-07T05:16:10;12.80;99.90
64869;DHT22;51349;52.424;10.840;2023-09-07T05:21:12;12.80;99.90
64869;DHT22;51349;52.424;10.840;2023-09-07T05:26:13;13.00;99.90
64869;DHT22;51349;52.424;10.840;2023-09-07T05:31:14;13.00;99.90
64869;DHT22;51349;52.424;10.840;2023-09-07T05:36:14;13.10;99.90
64869;DHT22;51349;52.424;10.840;2023-09-07T05:41:15;13.20;99.90
64869;DHT22;51349;52.424;10.840;2023-09-07T05:46:16;13.30;99.90
64869;DHT22;51349;52.424;10.840;2023-09-07T05:51:16;13.60;99.90
64869;DHT22;51349;52.424;10.840;2023-09-07T05:56:17;13.70;99.90
64869;DHT22;51349;52.424;10.840;2023-09-07T06:01:18;13.90;99.90
64869;DHT22;51349;52.424;10.840;2023-09-07T06:06:19;14.00;99.90
64869;DHT22;51349;52.424;10.840;2023-09-07T06:11:19;14.20;99.90
64869;DHT22;51349;52.424;10.840;2023-09-07T06:16:20;14.30;99.90
64869;DHT22;51349;52.424;10.840;2023-09-07T06:21:21;14.70;99.90
64869;DHT22;51349;52.424;10.840;2023-09-07T06:26:21;14.80;99.90
64869;DHT22;51349;52.424;10.840;2023-09-07T06:31:22;15.10;99.90
64869;DHT22;51349;52.424;10.840;2023-09-07T06:36:26;15.20;99.90
64869;DHT22;51349;52.424;10.840;2023-09-07T06:41:27;15.40;99.90
64869;DHT22;51349;52.424;10.840;2023-09-07T06:46:28;15.60;99.90
64869;DHT22;51349;52.424;10.840;2023-09-07T06:51:31;15.80;99.90
64869;DHT22;51349;52.424;10.840;2023-09-07T06:56:31;16.10;99.90
64869;DHT22;51349;52.424;10.840;2023-09-07T07:01:34;16.40;99.90
64869;DHT22;51349;52.424;10.840;2023-09-07T07:06:36;16.70;99.90
64869;DHT22;51349;52.424;10.840;2023-09-07T07:11:36;17.00;99.90
64869;DHT22;51349;52.424;10.840;2023-09-07T07:16:39;17.40;99.90
64869;DHT22;51349;52.424;10.840;2023-09-07T07:21:40;17.80;99.90
64869;DHT22;51349;52.424;10.840;2023-09-07T07:26:40;18.20;99.90
64869;DHT22;51349;52.424;10.840;2023-09-07T07:31:41;18.50;99.90
64869;DHT22;51349;52.424;10.840;2023-09-07T07:36:42;18.80;99.90
64869;DHT22;51349;52.424;10.840;2023-09-07T07:41:43;19.20;99.90
64869;DHT22;51349;52.424;10.840;2023-09-07T07:46:46;19.60;99.90
64869;DHT22;51349;52.424;10.840;2023-09-07T07:51:46;20.00;99.90
64869;DHT22;51349;52.424;10.840;2023-09-07T07:56:47;20.50;99.90
64869;DHT22;51349;52.424;10.840;2023-09-07T08:01:48;21.40;99.90
64869;DHT22;51349;52.424;10.840;2023-09-07T08:06:48;22.30;99.90
64869;DHT22;51349;52.424;10.840;2023-09-07T08:11:49;23.20;99.90
64869;DHT22;51349;52.424;10.840;2023-09-07T08:16:54;24.10;99.90
64869;DHT22;51349;52.424;10.840;2023-09-07T08:21:54;24.20;99.90
64869;DHT22;51349;52.424;10.840;2023-09-07T08:26:55;24.70;99.90
64869;DHT22;51349;52.424;10.840;2023-09-07T08:31:58;25.90;99.90
64869;DHT22;51349;52.424;10.840;2023-09-07T08:36:59;26.80;99.90
64869;DHT22;51349;52.424;10.840;2023-09-07T08:42:00;27.20;99.90
64869;DHT22;51349;52.424;10.840;2023-09-07T08:47:02;27.60;99.90
64869;DHT22;51349;52.424;10.840;2023-09-07T08:52:05;27.80;99.90
64869;DHT22;51349;52.424;10.840;2023-09-07T08:57:07;27.80;99.90
64869;DHT22;51349;52.424;10.840;2023-09-07T09:02:11;28.30;99.90
64869;DHT22;51349;52.424;10.840;2023-09-07T09:07:12;28.70;99.90
64869;DHT22;51349;52.424;10.840;2023-09-07T09:12:13;29.10;99.90
64869;DHT22;51349;52.424;10.840;2023-09-07T09:17:15;29.80;99.90
64869;DHT22;51349;52.424;10.840;2023-09-07T09:22:16;29.60;99.90
64869;DHT22;51349;52.424;10.840;2023-09-07T09:27:16;29.90;99.90
64869;DHT22;51349;52.424;10.840;2023-09-07T09:32:20;29.90;99.90
64869;DHT22;51349;52.424;10.840;2023-09-07T09:37:20;30.40;99.90
64869;DHT22;51349;52.424;10.840;2023-09-07T09:42:21;30.70;99.60
64869;DHT22;51349;52.424;10.840;2023-09-07T09:47:23;30.90;99.60
64869;DHT22;51349;52.424;10.840;2023-09-07T09:52:24;30.60;99.10
64869;DHT22;51349;52.424;10.840;2023-09-07T09:57:25;30.90;97.50
64869;DHT22;51349;52.424;10.840;2023-09-07T10:02:26;30.70;96.80
64869;DHT22;51349;52.424;10.840;2023-09-07T10:07:44;31.00;98.70
64869;DHT22;51349;52.424;10.840;2023-09-07T10:12:52;31.90;98.10
64869;DHT22;51349;52.424;10.840;2023-09-07T10:18:15;32.00;97.20
64869;DHT22;51349;52.424;10.840;2023-09-07T10:23:19;31.40;95.50
64869;DHT22;51349;52.424;10.840;2023-09-07T10:28:25;31.00;97.10
64869;DHT22;51349;52.424;10.840;2023-09-07T10:33:26;31.10;95.60
64869;DHT22;51349;52.424;10.840;2023-09-07T10:38:27;30.10;94.10
64869;DHT22;51349;52.424;10.840;2023-09-07T10:43:29;29.70;94.70
64869;DHT22;51349;52.424;10.840;2023-09-07T10:48:33;29.90;96.70
64869;DHT22;51349;52.424;10.840;2023-09-07T10:53:34;29.20;94.50
64869;DHT22;51349;52.424;10.840;2023-09-07T10:58:38;28.70;95.50
64869;DHT22;51349;52.424;10.840;2023-09-07T11:03:42;29.10;97.30
64869;DHT22;51349;52.424;10.840;2023-09-07T11:08:43;28.80;95.10
64869;DHT22;51349;52.424;10.840;2023-09-07T11:13:44;28.70;96.00
64869;DHT22;51349;52.424;10.840;2023-09-07T11:18:47;28.90;96.30
64869;DHT22;51349;52.424;10.840;2023-09-07T11:23:48;29.00;95.00
64869;DHT22;51349;52.424;10.840;2023-09-07T11:28:49;28.90;95.10
64869;DHT22;51349;52.424;10.840;2023-09-07T11:33:50;28.70;95.90
64869;DHT22;51349;52.424;10.840;2023-09-07T11:38:51;28.70;94.80
64869;DHT22;51349;52.424;10.840;2023-09-07T11:43:52;28.90;95.90
64869;DHT22;51349;52.424;10.840;2023-09-07T11:48:53;28.60;95.20
64869;DHT22;51349;52.424;10.840;2023-09-07T11:53:53;28.70;95.00
64869;DHT22;51349;52.424;10.840;2023-09-07T11:58:54;28.60;95.20
64869;DHT22;51349;52.424;10.840;2023-09-07T12:03:55;28.80;95.40
64869;DHT22;51349;52.424;10.840;2023-09-07T12:14:00;28.80;96.30
64869;DHT22;51349;52.424;10.840;2023-09-07T12:19:01;28.80;95.40
64869;DHT22;51349;52.424;10.840;2023-09-07T12:24:02;28.60;95.20
64869;DHT22;51349;52.424;10.840;2023-09-07T12:29:04;28.50;95.90
64869;DHT22;51349;52.424;10.840;2023-09-07T12:34:04;28.60;95.70
64869;DHT22;51349;52.424;10.840;2023-09-07T12:39:05;28.80;96.70
64869;DHT22;51349;52.424;10.840;2023-09-07T12:44:06;28.70;95.20
64869;DHT22;51349;52.424;10.840;2023-09-07T12:49:06;28.70;95.50
64869;DHT22;51349;52.424;10.840;2023-09-07T12:54:08;28.70;95.40
64869;DHT22;51349;52.424;10.840;2023-09-07T12:59:08;28.80;95.20
64869;DHT22;51349;52.424;10.840;2023-09-07T13:04:09;28.70;95.80
64869;DHT22;51349;52.424;10.840;2023-09-07T13:09:11;28.80;95.50
64869;DHT22;51349;52.424;10.840;2023-09-07T13:14:12;28.80;95.40
64869;DHT22;51349;52.424;10.840;2023-09-07T13:19:13;28.90;94.70
64869;DHT22;51349;52.424;10.840;2023-09-07T13:24:13;28.70;95.30
64869;DHT22;51349;52.424;10.840;2023-09-07T13:29:14;28.70;94.60
64869;DHT22;51349;52.424;10.840;2023-09-07T13:34:15;28.80;95.00
64869;DHT22;51349;52.424;10.840;2023-09-07T13:39:16;28.50;95.00
64869;DHT22;51349;52.424;10.840;2023-09-07T13:44:17;28.50;95.00
64869;DHT22;51349;52.424;10.840;2023-09-07T13:49:18;28.60;94.60
64869;DHT22;51349;52.424;10.840;2023-09-07T13:54:19;28.30;95.10
64869;DHT22;51349;52.424;10.840;2023-09-07T13:59:20;28.30;94.80
64869;DHT22;51349;52.424;10.840;2023-09-07T14:04:21;28.40;94.20
64869;DHT22;51349;52.424;10.840;2023-09-07T14:09:22;28.40;94.50
64869;DHT22;51349;52.424;10.840;2023-09-07T14:14:23;28.50;93.50
64869;DHT22;51349;52.424;10.840;2023-09-07T14:19:24;28.40;91.80
64869;DHT22;51349;52.424;10.840;2023-09-07T14:24:25;28.50;92.70
64869;DHT22;51349;52.424;10.840;2023-09-07T14:29:26;28.40;92.30
64869;DHT22;51349;52.424;10.840;2023-09-07T14:34:29;28.30;92.60
64869;DHT22;51349;52.424;10.840;2023-09-07T14:39:30;28.20;93.10
64869;DHT22;51349;52.424;10.840;2023-09-07T14:44:30;28.40;92.40
64869;DHT22;51349;52.424;10.840;2023-09-07T14:49:31;28.50;91.50
64869;DHT22;51349;52.424;10.840;2023-09-07T14:54:32;28.50;90.70
64869;DHT22;51349;52.424;10.840;2023-09-07T14:59:32;28.40;90.80
64869;DHT22;51349;52.424;10.840;2023-09-07T15:04:33;28.40;91.20
64869;DHT22;51349;52.424;10.840;2023-09-07T15:09:34;28.30;90.60
64869;DHT22;51349;52.424;10.840;2023-09-07T15:14:35;28.40;91.00
64869;DHT22;51349;52.424;10.840;2023-09-07T15:19:35;28.40;91.90
64869;DHT22;51349;52.424;10.840;2023-09-07T15:24:36;28.40;92.30
64869;DHT22;51349;52.424;10.840;2023-09-07T15:29:37;28.40;91.50
64869;DHT22;51349;52.424;10.840;2023-09-07T15:34:38;28.40;90.40
64869;DHT22;51349;52.424;10.840;2023-09-07T15:39:38;28.50;91.20
64869;DHT22;51349;52.424;10.840;2023-09-07T15:44:39;28.50;91.00
64869;DHT22;51349;52.424;10.840;2023-09-07T15:49:42;28.50;91.80
64869;DHT22;51349;52.424;10.840;2023-09-07T15:54:44;28.70;91.20
64869;DHT22;51349;52.424;10.840;2023-09-07T15:59:45;28.90;91.60
64869;DHT22;51349;52.424;10.840;2023-09-07T16:04:46;29.30;90.80
64869;DHT22;51349;52.424;10.840;2023-09-07T16:09:46;29.90;88.70
64869;DHT22;51349;52.424;10.840;2023-09-07T16:14:48;30.50;89.30
64869;DHT22;51349;52.424;10.840;2023-09-07T16:19:48;29.80;87.10
64869;DHT22;51349;52.424;10.840;2023-09-07T16:24:49;29.80;88.20
64869;DHT22;51349;52.424;10.840;2023-09-07T16:29:50;30.00;89.80
64869;DHT22;51349;52.424;10.840;2023-09-07T16:34:51;29.90;90.20
64869;DHT22;51349;52.424;10.840;2023-09-07T16:39:54;29.80;89.50
64869;DHT22;51349;52.424;10.840;2023-09-07T16:44:55;29.50;90.70
64869;DHT22;51349;52.424;10.840;2023-09-07T16:49:56;29.10;91.30
64869;DHT22;51349;52.424;10.840;2023-09-07T16:54:57;28.60;91.20
64869;DHT22;51349;52.424;10.840;2023-09-07T16:59:58;28.00;92.10
64869;DHT22;51349;52.424;10.840;2023-09-07T17:04:59;27.40;93.10
64869;DHT22;51349;52.424;10.840;2023-09-07T17:09:59;26.90;92.90
64869;DHT22;51349;52.424;10.840;2023-09-07T17:15:00;26.50;93.40
64869;DHT22;51349;52.424;10.840;2023-09-07T17:20:01;26.10;94.40
64869;DHT22;51349;52.424;10.840;2023-09-07T17:25:04;25.90;95.00
64869;DHT22;51349;52.424;10.840;2023-09-07T17:30:05;25.60;95.20
64869;DHT22;51349;52.424;10.840;2023-09-07T17:35:07;25.30;95.20
64869;DHT22;51349;52.424;10.840;2023-09-07T17:40:08;24.90;96.70
64869;DHT22;51349;52.424;10.840;2023-09-07T17:45:10;24.50;97.50
64869;DHT22;51349;52.424;10.840;2023-09-07T17:50:11;23.90;98.20
64869;DHT22;51349;52.424;10.840;2023-09-07T17:55:12;23.60;99.30
64869;DHT22;51349;52.424;10.840;2023-09-07T18:00:13;23.30;99.90
64869;DHT22;51349;52.424;10.840;2023-09-07T18:05:14;23.00;99.90
64869;DHT22;51349;52.424;10.840;2023-09-07T18:10:19;22.70;99.90
64869;DHT22;51349;52.424;10.840;2023-09-07T18:15:20;22.50;99.90
64869;DHT22;51349;52.424;10.840;2023-09-07T18:20:22;22.20;99.90
64869;DHT22;51349;52.424;10.840;2023-09-07T18:25:22;21.90;99.90
64869;DHT22;51349;52.424;10.840;2023-09-07T18:30:23;21.80;99.90
64869;DHT22;51349;52.424;10.840;2023-09-07T18:35:25;21.50;99.90
64869;DHT22;51349;52.424;10.840;2023-09-07T18:40:26;21.30;99.90
64869;DHT22;51349;52.424;10.840;2023-09-07T18:45:27;21.20;99.90
64869;DHT22;51349;52.424;10.840;2023-09-07T18:50:28;21.00;99.90
64869;DHT22;51349;52.424;10.840;2023-09-07T18:55:28;20.80;99.90
64869;DHT22;51349;52.424;10.840;2023-09-07T19:00:29;20.70;99.90
64869;DHT22;51349;52.424;10.840;2023-09-07T19:05:30;20.60;99.90
64869;DHT22;51349;52.424;10.840;2023-09-07T19:10:30;20.50;99.90
64869;DHT22;51349;52.424;10.840;2023-09-07T19:15:31;20.40;99.90
64869;DHT22;51349;52.424;10.840;2023-09-07T19:20:32;20.40;99.90
64869;DHT22;51349;52.424;10.840;2023-09-07T19:25:33;20.30;99.90
64869;DHT22;51349;52.424;10.840;2023-09-07T19:30:35;20.10;99.90
64869;DHT22;51349;52.424;10.840;2023-09-07T19:35:35;20.00;99.90
64869;DHT22;51349;52.424;10.840;2023-09-07T19:40:36;19.80;99.90
64869;DHT22;51349;52.424;10.840;2023-09-07T19:45:37;19.60;99.90
64869;DHT22;51349;52.424;10.840;2023-09-07T19:50:37;19.60;99.90
64869;DHT22;51349;52.424;10.840;2023-09-07T19:55:38;19.40;99.90
64869;DHT22;51349;52.424;10.840;2023-09-07T20:00:39;19.20;99.90
64869;DHT22;51349;52.424;10.840;2023-09-07T20:05:39;19.10;99.90
64869;DHT22;51349;52.424;10.840;2023-09-07T20:10:40;19.00;99.90
64869;DHT22;51349;52.424;10.840;2023-09-07T20:15:40;18.80;99.90
64869;DHT22;51349;52.424;10.840;2023-09-07T20:20:41;18.70;99.90
64869;DHT22;51349;52.424;10.840;2023-09-07T20:25:42;18.60;99.90
64869;DHT22;51349;52.424;10.840;2023-09-07T20:30:42;18.50;99.90
64869;DHT22;51349;52.424;10.840;2023-09-07T20:35:46;18.40;99.90
64869;DHT22;51349;52.424;10.840;2023-09-07T20:40:47;18.30;99.90
64869;DHT22;51349;52.424;10.840;2023-09-07T20:45:49;18.30;99.90
64869;DHT22;51349;52.424;10.840;2023-09-07T20:50:50;18.20;99.90
64869;DHT22;51349;52.424;10.840;2023-09-07T20:55:51;18.00;99.90
64869;DHT22;51349;52.424;10.840;2023-09-07T21:00:51;17.80;99.90
64869;DHT22;51349;52.424;10.840;2023-09-07T21:05:52;17.80;99.90
64869;DHT22;51349;52.424;10.840;2023-09-07T21:10:53;17.50;99.90
64869;DHT22;51349;52.424;10.840;2023-09-07T21:15:54;17.50;99.90
64869;DHT22;51349;52.424;10.840;2023-09-07T21:20:56;17.40;99.90
64869;DHT22;51349;52.424;10.840;2023-09-07T21:25:58;17.30;99.90
64869;DHT22;51349;52.424;10.840;2023-09-07T21:30:58;17.10;99.90
64869;DHT22;51349;52.424;10.840;2023-09-07T21:36:00;17.00;99.90
64869;DHT22;51349;52.424;10.840;2023-09-07T21:41:01;16.80;99.90
64869;DHT22;51349;52.424;10.840;2023-09-07T21:46:02;16.80;99.90
64869;DHT22;51349;52.424;10.840;2023-09-07T21:51:02;16.70;99.90
64869;DHT22;51349;52.424;10.840;2023-09-07T21:56:03;16.60;99.90
64869;DHT22;51349;52.424;10.840;2023-09-07T22:01:04;16.50;99.90
64869;DHT22;51349;52.424;10.840;2023-09-07T22:06:06;16.50;99.90
64869;DHT22;51349;52.424;10.840;2023-09-07T22:11:06;16.40;99.90
64869;DHT22;51349;52.424;10.840;2023-09-07T22:16:07;16.40;99.90
64869;DHT22;51349;52.424;10.840;2023-09-07T22:21:08;16.20;99.90
64869;DHT22;51349;52.424;10.840;2023-09-07T22:26:10;16.10;99.90
64869;DHT22;51349;52.424;10.840;2023-09-07T22:31:10;16.10;99.90
64869;DHT22;51349;52.424;10.840;2023-09-07T22:36:11;15.90;99.90
64869;DHT22;51349;52.424;10.840;2023-09-07T22:41:12;15.90;99.90
64869;DHT22;51349;52.424;10.840;2023-09-07T22:46:13;15.80;99.90
64869;DHT22;51349;52.424;10.840;2023-09-07T22:51:14;15.70;99.90
64869;DHT22;51349;52.424;10.840;2023-09-07T22:56:15;15.70;99.90
64869;DHT22;51349;52.424;10.840;2023-09-07T23:01:15;15.60;99.90
64869;DHT22;51349;52.424;10.840;2023-09-07T23:06:16;15.60;99.90
64869;DHT22;51349;52.424;10.840;2023-09-07T23:11:17;15.40;99.90
64869;DHT22;51349;52.424;10.840;2023-09-07T23:16:19;15.40;99.90
64869;DHT22;51349;52.424;10.840;2023-09-07T23:21:19;15.30;99.90
64869;DHT22;51349;52.424;10.840;2023-09-07T23:26:20;15.20;99.90
64869;DHT22;51349;52.424;10.840;2023-09-07T23:31:21;15.20;99.90
64869;DHT22;51349;52.424;10.840;2023-09-07T23:36:22;15.20;99.90
64869;DHT22;51349;52.424;10.840;2023-09-07T23:41:24;15.10;99.90
64869;DHT22;51349;52.424;10.840;2023-09-07T23:46:25;15.20;99.90
64869;DHT22;51349;52.424;10.840;2023-09-07T23:51:25;15.10;99.90
64869;DHT22;51349;52.424;10.840;2023-09-07T23:56:26;15.00;99.90
